Brookfield, Canada
Current Conditions -  °F | °C
As of 4:00 PM on Tuesday 21 Oct 2014 (Local Time) from CYHZ Reporting Station
Broken Clouds Broken Clouds  
Wind Chill: 57°   Ceiling: 18000
Heat Index: 57°   Visibility: 15mi
Dew Point: 39°   Wind: 8mph
Humidity: 51%   Direction: 260°W
Pressure: 30.16"   Gusts: NA
Location:  45.25°N, 63.28°W
Report Text: CYHZ 211900Z 26007KT 200V280 15SM FEW025 BKN180 BKN220 14/04 A3016 RMK CF1AC6CI1 CF TR SLP215
Loading
Personal Weather Stations






























Interactive Weather Map
Tropical Storm Tracking
New forecast layout! Learn more

10-Day Weather Forecast

Advertisements
Track Severe Weather on mobile